Time;durP1;ratioP1;P1;durP2;ratioP2;P2;SDS_P1;SDS_P2;PMS_P1;PMS_P2;Temp;Humidity;BMP_temperature;BMP_pressure;BME280_temperature;BME280_humidity;BME280_pressure;Samples;Min_cycle;Max_cycle;Signal;HPM_P1;HPM_P2
2023/11/24 00:01:26;;;;;;;0.20;0.20;;;;;;;9.16;100.00;98969.22;5091604;28;20183;-58
2023/11/24 00:03:53;;;;;;;0.22;0.22;;;;;;;9.23;100.00;98973.38;5098325;28;20158;-59
2023/11/24 00:06:20;;;;;;;0.20;0.20;;;;;;;9.20;100.00;98949.00;5100295;28;20067;-59
2023/11/24 00:08:48;;;;;;;0.20;0.20;;;;;;;9.14;100.00;98958.78;5094215;28;20056;-59
2023/11/24 00:11:20;;;;;;;0.30;0.30;;;;;;;9.19;100.00;98960.75;5096433;28;20047;-58
2023/11/24 00:13:47;;;;;;;0.20;0.20;;;;;;;9.20;100.00;98943.66;5093999;28;20040;-60
2023/11/24 00:16:16;;;;;;;0.30;0.30;;;;;;;9.21;100.00;98947.94;5096310;28;20558;-59
2023/11/24 00:18:43;;;;;;;0.20;0.20;;;;;;;9.40;100.00;98945.88;5099062;28;20047;-59
2023/11/24 00:21:10;;;;;;;0.30;0.30;;;;;;;9.41;100.00;98932.25;5099836;28;20040;-59
2023/11/24 00:23:37;;;;;;;0.10;0.10;;;;;;;9.40;100.00;98922.59;5092977;28;20101;-59
2023/11/24 00:26:05;;;;;;;0.20;0.20;;;;;;;9.34;100.00;98922.78;5093593;28;20035;-60
2023/11/24 00:28:39;;;;;;;0.20;0.20;;;;;;;9.41;100.00;98924.22;5095847;28;20077;-59
2023/11/24 00:31:07;;;;;;;0.20;0.20;;;;;;;9.54;100.00;98927.66;5092033;28;20150;-59
2023/11/24 00:33:35;;;;;;;0.20;0.20;;;;;;;9.52;100.00;98925.22;5098689;28;20140;-59
2023/11/24 00:36:01;;;;;;;0.20;0.20;;;;;;;9.60;100.00;98916.75;5092129;28;20401;-60
2023/11/24 00:38:29;;;;;;;0.20;0.20;;;;;;;9.56;100.00;98926.34;5097546;28;20051;-59
2023/11/24 00:40:56;;;;;;;0.20;0.20;;;;;;;9.54;100.00;98909.72;5094620;28;20048;-59
2023/11/24 00:43:23;;;;;;;0.20;0.20;;;;;;;9.61;100.00;98917.56;5091223;28;20237;-60
2023/11/24 00:45:53;;;;;;;0.20;0.20;;;;;;;9.58;100.00;98913.53;5098362;27;20117;-60
2023/11/24 00:48:22;;;;;;;0.30;0.30;;;;;;;9.54;100.00;98906.25;5096145;28;20048;-59
2023/11/24 00:50:50;;;;;;;0.30;0.30;;;;;;;9.50;100.00;98917.41;5094995;28;20104;-60
2023/11/24 00:53:17;;;;;;;0.20;0.20;;;;;;;9.48;100.00;98914.19;5087522;28;20109;-59
2023/11/24 00:55:44;;;;;;;0.30;0.30;;;;;;;9.57;100.00;98927.16;5088321;28;20066;-60
2023/11/24 00:58:11;;;;;;;0.20;0.20;;;;;;;9.45;100.00;98980.72;5090224;28;20043;-59
2023/11/24 01:00:39;;;;;;;0.20;0.20;;;;;;;8.21;100.00;99011.34;5106054;27;20035;-60
2023/11/24 01:03:08;;;;;;;0.20;0.20;;;;;;;7.74;100.00;99024.66;5092407;28;20050;-60
2023/11/24 01:05:35;;;;;;;0.30;0.30;;;;;;;7.62;100.00;99021.13;5090958;28;20067;-59
2023/11/24 01:08:02;;;;;;;0.25;0.25;;;;;;;7.53;100.00;99023.31;5092052;28;20194;-59
2023/11/24 01:10:29;;;;;;;0.30;0.30;;;;;;;7.29;100.00;99027.75;5093395;28;20046;-59
2023/11/24 01:12:58;;;;;;;0.30;0.30;;;;;;;7.10;100.00;99032.28;5091153;28;20423;-59
2023/11/24 01:15:25;;;;;;;0.30;0.30;;;;;;;7.04;100.00;99039.34;5091235;28;20055;-59
2023/11/24 01:17:54;;;;;;;0.30;0.30;;;;;;;6.94;100.00;99033.72;5093536;28;20059;-59
2023/11/24 01:20:25;;;;;;;0.40;0.40;;;;;;;6.89;100.00;99038.91;5098835;28;20055;-59
2023/11/24 01:22:52;;;;;;;0.38;0.38;;;;;;;6.87;100.00;99033.81;5098693;28;20051;-59
2023/11/24 01:25:19;;;;;;;0.30;0.30;;;;;;;6.81;100.00;99044.53;5089521;28;20127;-59
2023/11/24 01:27:46;;;;;;;0.38;0.38;;;;;;;6.77;100.00;99043.34;5098209;28;20092;-59
2023/11/24 01:30:15;;;;;;;0.40;0.40;;;;;;;6.72;100.00;99045.88;5084748;28;20154;-59
2023/11/24 01:32:42;;;;;;;0.30;0.30;;;;;;;6.68;100.00;99046.28;5106930;27;20470;-59
2023/11/24 01:35:09;;;;;;;0.32;0.32;;;;;;;6.77;100.00;99033.50;5084108;28;20047;-59
2023/11/24 01:37:38;;;;;;;0.20;0.20;;;;;;;6.72;100.00;99038.69;5094289;28;20044;-58
2023/11/24 01:40:06;;;;;;;0.32;0.32;;;;;;;6.66;100.00;99032.41;5088517;28;20039;-59
2023/11/24 01:42:36;;;;;;;0.30;0.30;;;;;;;6.74;100.00;99033.13;5099825;28;20043;-58
2023/11/24 01:45:04;;;;;;;0.30;0.30;;;;;;;6.71;100.00;99023.72;5093700;28;20047;-58
2023/11/24 01:47:32;;;;;;;0.40;0.40;;;;;;;6.72;100.00;99019.25;5103327;28;20443;-59
2023/11/24 01:49:59;;;;;;;0.30;0.30;;;;;;;6.65;100.00;99017.44;5098589;28;20040;-58
2023/11/24 01:52:26;;;;;;;0.32;0.32;;;;;;;6.66;100.00;99010.25;5092932;28;20086;-58
2023/11/24 01:54:54;;;;;;;0.40;0.40;;;;;;;6.62;100.00;99004.59;5095328;28;20114;-58
2023/11/24 01:57:22;;;;;;;0.40;0.40;;;;;;;6.73;100.00;98996.88;5090047;28;20044;-59
2023/11/24 01:59:49;;;;;;;0.40;0.40;;;;;;;6.73;100.00;99004.88;5092021;28;20571;-58
2023/11/24 02:02:16;;;;;;;0.40;0.40;;;;;;;6.89;100.00;98990.97;5101825;28;20135;-58
2023/11/24 02:04:43;;;;;;;0.40;0.40;;;;;;;6.86;100.00;98999.38;5102078;27;20043;-59
2023/11/24 02:07:11;;;;;;;0.47;0.47;;;;;;;6.94;100.00;98982.28;5096506;28;20043;-58
2023/11/24 02:09:38;;;;;;;0.20;0.20;;;;;;;6.95;100.00;99007.91;5092120;28;20043;-58
2023/11/24 02:12:08;;;;;;;0.25;0.25;;;;;;;6.92;100.00;99003.84;5097084;27;20047;-58
2023/11/24 02:14:35;;;;;;;0.40;0.40;;;;;;;6.91;100.00;98992.38;5092123;28;20477;-58
2023/11/24 02:17:02;;;;;;;0.20;0.20;;;;;;;6.98;100.00;98997.59;5095621;28;20451;-59
2023/11/24 02:19:29;;;;;;;0.30;0.30;;;;;;;6.98;100.00;99013.56;5091234;28;20048;-58
2023/11/24 02:21:56;;;;;;;0.30;0.30;;;;;;;7.00;100.00;99010.69;5074041;28;20067;-59
2023/11/24 02:24:24;;;;;;;0.30;0.30;;;;;;;7.05;100.00;99006.31;5097845;28;20112;-58
2023/11/24 02:26:51;;;;;;;0.30;0.30;;;;;;;7.02;100.00;99013.97;5098627;28;20572;-59
2023/11/24 02:29:18;;;;;;;0.22;0.22;;;;;;;7.01;100.00;99013.13;5093529;28;20122;-58
2023/11/24 02:31:45;;;;;;;0.30;0.30;;;;;;;7.08;100.00;99002.38;5086362;28;20241;-59
2023/11/24 02:34:13;;;;;;;0.40;0.40;;;;;;;7.11;100.00;98999.25;5091941;28;20143;-58
2023/11/24 02:36:42;;;;;;;0.30;0.30;;;;;;;7.19;100.00;98998.97;5110300;27;20047;-59
2023/11/24 02:39:09;;;;;;;0.28;0.28;;;;;;;7.16;100.00;99014.59;5096238;28;20400;-60
2023/11/24 02:41:38;;;;;;;0.30;0.30;;;;;;;7.09;100.00;99007.50;5095949;28;20048;-60
2023/11/24 02:44:05;;;;;;;0.32;0.32;;;;;;;7.13;100.00;98999.84;5109980;27;20040;-60
2023/11/24 02:46:32;;;;;;;0.30;0.30;;;;;;;7.13;100.00;98989.19;5092753;28;20175;-60
2023/11/24 02:48:59;;;;;;;0.30;0.30;;;;;;;7.10;100.00;98990.47;5098319;28;20703;-59
2023/11/24 02:51:26;;;;;;;0.30;0.30;;;;;;;7.18;100.00;98991.19;5095981;27;20048;-58
2023/11/24 02:53:53;;;;;;;0.32;0.32;;;;;;;7.24;100.00;98980.44;5092730;28;20059;-58
2023/11/24 02:56:20;;;;;;;0.20;0.20;;;;;;;7.15;100.00;98986.31;5102686;28;20051;-58
2023/11/24 02:58:49;;;;;;;0.43;0.43;;;;;;;7.10;100.00;98969.16;5095913;28;20129;-59
2023/11/24 03:01:16;;;;;;;0.32;0.32;;;;;;;7.07;100.00;98958.94;5094424;28;20066;-59
2023/11/24 03:03:43;;;;;;;0.40;0.40;;;;;;;6.91;100.00;98955.06;5099224;28;20061;-61
2023/11/24 03:06:12;;;;;;;0.43;0.43;;;;;;;6.87;100.00;98945.88;5093823;28;20126;-59
2023/11/24 03:08:39;;;;;;;0.40;0.40;;;;;;;6.79;100.00;98956.84;5069813;28;20090;-59
2023/11/24 03:11:08;;;;;;;0.30;0.30;;;;;;;6.82;100.00;98958.25;5094738;28;20139;-59
2023/11/24 03:13:35;;;;;;;0.30;0.30;;;;;;;6.79;100.00;98956.03;5088237;28;20044;-60
2023/11/24 03:16:06;;;;;;;0.30;0.30;;;;;;;6.72;100.00;98971.31;5091081;27;20048;-59
2023/11/24 03:18:33;;;;;;;0.30;0.30;;;;;;;6.86;100.00;98959.41;5095805;28;20051;-60
2023/11/24 03:21:00;;;;;;;0.40;0.40;;;;;;;6.68;100.00;98961.06;5095254;28;20047;-60
2023/11/24 03:23:27;;;;;;;0.35;0.35;;;;;;;6.69;100.00;98965.38;5092155;28;20048;-60
2023/11/24 03:25:54;;;;;;;0.28;0.28;;;;;;;6.61;100.00;98965.66;5088929;28;20047;-60
2023/11/24 03:28:23;;;;;;;0.40;0.40;;;;;;;6.59;100.00;98967.75;5098834;28;20142;-60
2023/11/24 03:30:50;;;;;;;0.40;0.40;;;;;;;6.55;100.00;98961.22;5093504;28;20063;-60
2023/11/24 03:33:20;;;;;;;0.32;0.32;;;;;;;6.57;100.00;98951.19;5099244;28;20058;-58
2023/11/24 03:35:47;;;;;;;0.43;0.43;;;;;;;6.63;100.00;98952.94;5096062;28;20088;-60
2023/11/24 03:38:14;;;;;;;0.30;0.30;;;;;;;6.72;100.00;98944.66;5095184;28;20067;-60
2023/11/24 03:40:42;;;;;;;0.40;0.40;;;;;;;6.68;100.00;98945.09;5093703;27;20043;-59
2023/11/24 03:43:09;;;;;;;0.50;0.50;;;;;;;6.56;100.00;98951.38;5091725;28;20092;-59
2023/11/24 03:45:36;;;;;;;0.40;0.40;;;;;;;6.58;100.00;98939.47;5087712;28;20511;-60
2023/11/24 03:48:04;;;;;;;0.50;0.50;;;;;;;6.61;100.00;98936.38;5096208;28;20121;-59
2023/11/24 03:50:32;;;;;;;0.40;0.40;;;;;;;6.53;100.00;98930.53;5096736;28;20130;-59
2023/11/24 03:52:59;;;;;;;0.40;0.40;;;;;;;6.47;100.00;98933.06;5094632;28;20044;-59
2023/11/24 03:55:28;;;;;;;0.30;0.30;;;;;;;6.51;100.00;98927.28;5088385;28;20079;-59
2023/11/24 03:57:55;;;;;;;0.30;0.30;;;;;;;6.39;100.00;98928.03;5097791;28;20563;-59
2023/11/24 04:00:23;;;;;;;0.30;0.30;;;;;;;6.28;100.00;98933.28;5092345;28;20048;-59
2023/11/24 04:02:50;;;;;;;0.30;0.30;;;;;;;6.19;100.00;98928.25;5090569;28;20063;-59
2023/11/24 04:05:17;;;;;;;0.30;0.30;;;;;;;6.22;100.00;98930.47;5113977;27;20356;-59
2023/11/24 04:07:46;;;;;;;0.40;0.40;;;;;;;6.13;100.00;98934.44;5086860;28;20245;-59
2023/11/24 04:10:13;;;;;;;0.30;0.30;;;;;;;6.12;100.00;98935.50;5091739;28;20043;-59
2023/11/24 04:12:40;;;;;;;0.40;0.40;;;;;;;6.04;100.00;98938.44;5099889;28;20062;-59
2023/11/24 04:15:08;;;;;;;0.30;0.30;;;;;;;6.05;100.00;98937.41;5094237;28;20054;-59
2023/11/24 04:17:36;;;;;;;0.40;0.40;;;;;;;6.08;100.00;98934.31;5110652;27;20043;-59
2023/11/24 04:20:04;;;;;;;0.35;0.35;;;;;;;6.10;100.00;98931.44;5096415;28;20688;-59
2023/11/24 04:22:31;;;;;;;0.40;0.40;;;;;;;6.02;100.00;98929.88;5102620;27;20410;-59
2023/11/24 04:25:00;;;;;;;0.30;0.30;;;;;;;5.98;100.00;98931.34;5088585;28;20079;-58
2023/11/24 04:27:27;;;;;;;0.40;0.40;;;;;;;5.91;100.00;98930.56;5100370;28;20056;-59
2023/11/24 04:29:56;;;;;;;0.30;0.30;;;;;;;5.91;100.00;98938.53;5087064;28;20092;-58
2023/11/24 04:32:23;;;;;;;0.28;0.28;;;;;;;5.80;100.00;98935.56;5099894;28;20127;-59
2023/11/24 04:34:50;;;;;;;0.30;0.30;;;;;;;5.91;100.00;98943.84;5093409;28;20044;-59
2023/11/24 04:37:18;;;;;;;0.25;0.25;;;;;;;5.91;100.00;98927.88;5096117;28;20135;-59
2023/11/24 04:39:46;;;;;;;0.40;0.40;;;;;;;6.03;100.00;98931.50;5099008;28;20043;-58
2023/11/24 04:42:15;;;;;;;0.43;0.43;;;;;;;6.04;100.00;98938.44;5092012;28;20055;-58
2023/11/24 04:44:42;;;;;;;0.40;0.40;;;;;;;6.00;100.00;98937.25;5091396;28;20118;-58
2023/11/24 04:47:10;;;;;;;0.40;0.40;;;;;;;5.93;100.00;98933.81;5093848;28;20040;-58
2023/11/24 04:49:37;;;;;;;0.40;0.40;;;;;;;6.00;100.00;98930.09;5090454;28;20094;-58
2023/11/24 04:52:05;;;;;;;0.30;0.30;;;;;;;6.00;100.00;98926.63;5100163;28;20044;-58
2023/11/24 04:54:32;;;;;;;0.40;0.40;;;;;;;5.96;100.00;98914.78;5096211;28;20048;-58
2023/11/24 04:57:00;;;;;;;0.50;0.50;;;;;;;5.97;100.00;98917.22;5085743;27;20127;-59
2023/11/24 04:59:28;;;;;;;0.30;0.30;;;;;;;5.94;100.00;98917.69;5097192;28;20060;-59
2023/11/24 05:01:55;;;;;;;0.40;0.40;;;;;;;5.87;100.00;98919.56;5089181;28;20123;-58
2023/11/24 05:04:22;;;;;;;0.43;0.43;;;;;;;5.89;100.00;98914.81;5093434;28;20076;-59
2023/11/24 05:06:50;;;;;;;0.40;0.40;;;;;;;5.90;100.00;98913.78;5092643;28;20138;-58
2023/11/24 05:09:17;;;;;;;0.30;0.30;;;;;;;5.91;100.00;98919.91;5089481;28;20051;-58
2023/11/24 05:11:44;;;;;;;0.38;0.38;;;;;;;5.90;100.00;98920.97;5090823;28;20185;-59
2023/11/24 05:14:11;;;;;;;0.40;0.40;;;;;;;5.86;100.00;98911.78;5098764;28;20573;-58
2023/11/24 05:16:40;;;;;;;0.30;0.30;;;;;;;5.80;100.00;98900.97;5094526;28;20071;-59
2023/11/24 05:19:07;;;;;;;0.40;0.40;;;;;;;5.81;100.00;98902.59;5092619;27;20051;-59
2023/11/24 05:21:37;;;;;;;0.30;0.30;;;;;;;5.78;100.00;98892.41;5102196;28;20142;-59
2023/11/24 05:24:05;;;;;;;0.30;0.30;;;;;;;5.77;100.00;98893.44;5096534;27;20545;-60
2023/11/24 05:26:33;;;;;;;0.40;0.40;;;;;;;5.74;100.00;98893.91;5097773;27;20135;-59
2023/11/24 05:29:00;;;;;;;0.40;0.40;;;;;;;5.84;100.00;98885.38;5101098;27;20499;-59
2023/11/24 05:31:27;;;;;;;0.40;0.40;;;;;;;5.87;100.00;98894.81;5095779;27;20075;-59
2023/11/24 05:33:56;;;;;;;0.30;0.30;;;;;;;5.83;100.00;98897.88;5100945;27;21007;-59
2023/11/24 05:36:23;;;;;;;0.38;0.38;;;;;;;5.78;100.00;98911.03;5102037;27;20059;-59
2023/11/24 05:38:50;;;;;;;0.32;0.32;;;;;;;5.78;100.00;98900.38;5101470;27;20159;-59
2023/11/24 05:41:17;;;;;;;0.30;0.30;;;;;;;5.74;100.00;98890.41;5101330;27;20108;-59
2023/11/24 05:43:44;;;;;;;0.50;0.50;;;;;;;5.82;100.00;98896.25;5100820;27;20494;-59
2023/11/24 05:46:11;;;;;;;0.30;0.30;;;;;;;5.86;100.00;98890.50;5105984;28;20052;-59
2023/11/24 05:48:39;;;;;;;0.40;0.40;;;;;;;5.84;100.00;98880.91;5104622;27;20043;-58
2023/11/24 05:51:07;;;;;;;0.32;0.32;;;;;;;5.74;100.00;98877.09;5105703;27;20043;-58
2023/11/24 05:53:34;;;;;;;0.47;0.47;;;;;;;5.70;100.00;98868.75;5102982;27;20143;-58
2023/11/24 05:56:02;;;;;;;0.30;0.30;;;;;;;5.70;100.00;98867.97;5101307;28;20047;-59
2023/11/24 05:58:30;;;;;;;0.40;0.40;;;;;;;5.69;100.00;98866.31;5101833;27;20039;-59
2023/11/24 06:00:58;;;;;;;0.38;0.38;;;;;;;5.60;100.00;98873.78;5099019;27;20044;-58
2023/11/24 06:03:25;;;;;;;0.32;0.32;;;;;;;5.61;100.00;98870.06;5100050;27;20044;-58
2023/11/24 06:05:52;;;;;;;0.40;0.40;;;;;;;5.54;100.00;98864.00;5098913;27;20068;-58
2023/11/24 06:08:20;;;;;;;0.30;0.30;;;;;;;5.54;100.00;98861.34;5098706;27;20058;-58
2023/11/24 06:10:47;;;;;;;0.30;0.30;;;;;;;5.45;100.00;98868.78;5104664;27;20126;-58
2023/11/24 06:13:14;;;;;;;0.47;0.47;;;;;;;5.48;100.00;98873.66;5106586;27;20079;-58
2023/11/24 06:15:42;;;;;;;0.40;0.40;;;;;;;5.51;100.00;98861.78;5100018;27;20055;-58
2023/11/24 06:18:09;;;;;;;0.40;0.40;;;;;;;5.58;100.00;98873.16;5097193;27;20474;-58
2023/11/24 06:20:36;;;;;;;0.40;0.40;;;;;;;5.60;100.00;98873.78;5098860;28;20078;-58
2023/11/24 06:23:03;;;;;;;0.30;0.30;;;;;;;5.68;100.00;98870.81;5101727;27;20047;-58
2023/11/24 06:25:32;;;;;;;0.32;0.32;;;;;;;5.77;100.00;98869.53;5101534;27;20277;-58
2023/11/24 06:27:59;;;;;;;0.30;0.30;;;;;;;5.68;100.00;98870.81;5098911;28;20040;-58
2023/11/24 06:30:26;;;;;;;0.38;0.38;;;;;;;5.74;100.00;98864.66;5100197;28;20050;-58
2023/11/24 06:32:53;;;;;;;0.40;0.40;;;;;;;5.68;100.00;98865.50;5094543;28;20051;-59
2023/11/24 06:35:20;;;;;;;0.40;0.40;;;;;;;5.63;100.00;98870.66;5095289;28;20058;-58
2023/11/24 06:37:48;;;;;;;0.40;0.40;;;;;;;5.55;100.00;98868.28;5096450;27;20146;-58
2023/11/24 06:40:16;;;;;;;0.30;0.30;;;;;;;5.56;100.00;98872.56;5094479;28;20146;-58
2023/11/24 06:42:45;;;;;;;0.40;0.40;;;;;;;5.62;100.00;98875.19;5103454;27;20084;-58
2023/11/24 06:45:13;;;;;;;0.30;0.30;;;;;;;5.62;100.00;98867.19;5096882;28;20051;-58
2023/11/24 06:47:40;;;;;;;0.40;0.40;;;;;;;5.66;100.00;98861.44;5091357;28;20113;-60
2023/11/24 06:50:09;;;;;;;0.40;0.40;;;;;;;5.67;100.00;98863.88;5093265;28;20062;-60
2023/11/24 06:52:36;;;;;;;0.40;0.40;;;;;;;5.66;100.00;98856.13;5094173;28;20492;-61
2023/11/24 06:55:06;;;;;;;0.30;0.30;;;;;;;5.59;100.00;98851.69;5099336;28;20694;-58
2023/11/24 06:57:33;;;;;;;0.40;0.40;;;;;;;5.59;100.00;98856.19;5098466;28;20048;-58
2023/11/24 07:00:03;;;;;;;0.40;0.40;;;;;;;5.67;100.00;98853.25;5097107;28;20092;-58
2023/11/24 07:02:30;;;;;;;;;;;;;;;5.70;100.00;98852.00;5100887;27;20044;-58
2023/11/24 07:04:57;;;;;;;0.30;0.30;;;;;;;5.70;100.00;98844.84;5094624;28;19924;-60
2023/11/24 07:07:24;;;;;;;0.50;0.50;;;;;;;5.68;100.00;98846.09;5099087;28;20043;-57
2023/11/24 07:09:51;;;;;;;0.30;0.30;;;;;;;5.69;100.00;98851.19;5097360;28;20051;-58
2023/11/24 07:12:19;;;;;;;0.32;0.32;;;;;;;5.71;100.00;98842.97;5096175;28;20051;-59
2023/11/24 07:14:47;;;;;;;0.40;0.40;;;;;;;5.68;100.00;98844.22;5097805;28;20052;-57
2023/11/24 07:17:15;;;;;;;0.35;0.35;;;;;;;5.67;100.00;98842.63;5102015;28;20043;-57
2023/11/24 07:19:42;;;;;;;0.35;0.35;;;;;;;5.71;100.00;98853.63;5094717;28;20047;-58
2023/11/24 07:22:10;;;;;;;0.32;0.32;;;;;;;5.71;100.00;98859.75;5096056;28;20065;-59
2023/11/24 07:24:38;;;;;;;0.40;0.40;;;;;;;5.67;100.00;98853.25;5094351;28;20043;-57
2023/11/24 07:27:06;;;;;;;0.40;0.40;;;;;;;5.62;100.00;98845.13;5092534;28;20058;-58
2023/11/24 07:29:33;;;;;;;0.35;0.35;;;;;;;5.64;100.00;98848.34;5095290;28;20091;-59
2023/11/24 07:32:02;;;;;;;0.43;0.43;;;;;;;5.62;100.00;98840.63;5097570;28;20039;-61
2023/11/24 07:34:31;;;;;;;0.40;0.40;;;;;;;5.59;100.00;98834.91;5093641;28;20043;-58
2023/11/24 07:37:01;;;;;;;0.40;0.40;;;;;;;5.63;100.00;98836.09;5095627;27;20221;-59
2023/11/24 07:39:29;;;;;;;0.40;0.40;;;;;;;5.63;100.00;98826.28;5099507;27;20446;-59
2023/11/24 07:41:58;;;;;;;0.30;0.30;;;;;;;5.72;100.00;98834.00;5101242;28;20036;-59
2023/11/24 07:44:27;;;;;;;0.40;0.40;;;;;;;5.68;100.00;98830.94;5089530;28;20047;-59
2023/11/24 07:46:54;;;;;;;0.40;0.40;;;;;;;5.73;100.00;98822.31;5093525;28;20066;-59
2023/11/24 07:49:21;;;;;;;0.40;0.40;;;;;;;5.76;100.00;98817.34;5097568;28;20071;-60
2023/11/24 07:51:51;;;;;;;0.47;0.47;;;;;;;5.73;100.00;98820.44;5091160;28;20062;-59
2023/11/24 07:54:18;;;;;;;0.40;0.40;;;;;;;5.74;100.00;98819.44;5094441;28;20047;-59
2023/11/24 07:56:45;;;;;;;0.30;0.30;;;;;;;5.77;100.00;98816.31;5093275;28;20469;-59
2023/11/24 07:59:13;;;;;;;0.40;0.40;;;;;;;5.79;100.00;98818.75;5097253;28;20152;-59
2023/11/24 08:01:41;;;;;;;0.30;0.30;;;;;;;5.84;100.00;98822.41;5103838;28;20127;-59
2023/11/24 08:04:08;;;;;;;0.40;0.40;;;;;;;5.83;100.00;98810.13;5094941;28;20501;-59
2023/11/24 08:06:35;;;;;;;0.40;0.40;;;;;;;5.87;100.00;98804.38;5094706;28;20077;-59
2023/11/24 08:09:06;;;;;;;0.40;0.40;;;;;;;5.87;100.00;98799.06;5092579;28;20048;-59
2023/11/24 08:11:34;;;;;;;0.40;0.40;;;;;;;6.00;100.00;98796.25;5093787;27;20071;-60
2023/11/24 08:14:02;;;;;;;0.38;0.38;;;;;;;5.88;100.00;98800.66;5091089;28;20036;-58
2023/11/24 08:16:29;;;;;;;0.30;0.30;;;;;;;5.94;100.00;98800.63;5091230;28;20047;-58
2023/11/24 08:18:57;;;;;;;0.40;0.40;;;;;;;5.93;100.00;98798.16;5094082;28;20047;-59
2023/11/24 08:21:24;;;;;;;0.50;0.50;;;;;;;5.91;100.00;98779.75;5099633;28;20071;-59
2023/11/24 08:23:51;;;;;;;0.50;0.50;;;;;;;5.99;100.00;98773.34;5094809;27;20154;-59
2023/11/24 08:26:21;;;;;;;0.40;0.40;;;;;;;6.12;100.00;98780.38;5098396;28;20055;-59
2023/11/24 08:28:48;;;;;;;0.28;0.28;;;;;;;6.12;100.00;98786.50;5096153;28;20137;-59
2023/11/24 08:31:17;;;;;;;0.25;0.25;;;;;;;6.04;100.00;98776.13;5085897;28;20097;-59
2023/11/24 08:33:44;;;;;;;0.40;0.40;;;;;;;5.98;100.00;98774.38;5097152;28;20071;-59
2023/11/24 08:36:11;;;;;;;0.30;0.30;;;;;;;5.87;100.00;98775.13;5094937;27;20043;-59
2023/11/24 08:38:38;;;;;;;0.28;0.28;;;;;;;5.91;100.00;98770.94;5088773;27;20150;-59
2023/11/24 08:41:13;;;;;;;0.40;0.40;;;;;;;5.96;100.00;98753.31;5092971;28;20044;-59
2023/11/24 08:43:41;;;;;;;0.40;0.40;;;;;;;6.00;100.00;98765.13;5093714;28;20289;-59
2023/11/24 08:46:08;;;;;;;0.32;0.32;;;;;;;5.95;100.00;98748.25;5102066;27;20094;-59
2023/11/24 08:48:35;;;;;;;0.38;0.38;;;;;;;5.84;100.00;98755.91;5102460;27;20113;-59
2023/11/24 08:51:03;;;;;;;0.30;0.30;;;;;;;6.04;100.00;98757.50;5094120;27;20545;-59
2023/11/24 08:53:31;;;;;;;0.40;0.40;;;;;;;5.86;100.00;98749.53;5100379;28;20086;-59
2023/11/24 08:55:58;;;;;;;0.35;0.35;;;;;;;5.85;100.00;98759.38;5094353;28;20071;-59
2023/11/24 08:58:26;;;;;;;0.40;0.40;;;;;;;5.78;100.00;98754.13;5097834;28;20154;-59
2023/11/24 09:00:54;;;;;;;0.40;0.40;;;;;;;5.92;100.00;98752.13;5099540;28;20122;-59
2023/11/24 09:03:24;;;;;;;0.40;0.40;;;;;;;5.96;100.00;98744.53;5092797;28;20044;-59
2023/11/24 09:05:52;;;;;;;0.47;0.47;;;;;;;6.01;100.00;98747.31;5088508;28;20573;-59
2023/11/24 09:08:19;;;;;;;0.40;0.40;;;;;;;5.90;100.00;98748.06;5096827;28;20501;-59
2023/11/24 09:10:46;;;;;;;0.30;0.30;;;;;;;5.97;100.00;98746.97;5097615;28;20065;-59
2023/11/24 09:13:14;;;;;;;0.40;0.40;;;;;;;5.99;100.00;98722.78;5094497;28;20658;-59
2023/11/24 09:15:42;;;;;;;0.30;0.30;;;;;;;5.75;100.00;98743.94;5092636;28;20409;-58
2023/11/24 09:18:10;;;;;;;0.30;0.30;;;;;;;5.47;100.00;98725.06;5093069;28;20066;-59
2023/11/24 09:20:38;;;;;;;0.40;0.40;;;;;;;5.30;100.00;98724.81;5112240;27;20032;-59
2023/11/24 09:23:05;;;;;;;0.40;0.40;;;;;;;5.35;100.00;98733.75;5091131;28;20044;-59
2023/11/24 09:25:33;;;;;;;0.40;0.40;;;;;;;6.37;100.00;98732.31;5092941;28;20136;-59
2023/11/24 09:28:00;;;;;;;0.40;0.40;;;;;;;6.46;98.07;98733.59;5088875;28;20039;-59
2023/11/24 09:30:27;;;;;;;0.50;0.50;;;;;;;6.25;100.00;98726.94;5094633;28;20075;-58
2023/11/24 09:32:55;;;;;;;0.40;0.40;;;;;;;5.98;100.00;98721.97;5093097;28;20055;-58
2023/11/24 09:35:24;;;;;;;0.50;0.50;;;;;;;6.52;99.73;98723.91;5087048;28;20054;-58
2023/11/24 09:37:52;;;;;;;0.30;0.30;;;;;;;6.28;98.73;98723.03;5091322;28;20406;-58
2023/11/24 09:40:22;;;;;;;0.40;0.40;;;;;;;6.35;98.57;98716.56;5092356;28;20478;-58
2023/11/24 09:42:50;;;;;;;0.40;0.40;;;;;;;6.28;98.67;98729.16;5089323;28;20044;-58
2023/11/24 09:45:19;;;;;;;0.30;0.30;;;;;;;6.28;98.22;98718.50;5095754;28;20942;-58
2023/11/24 09:47:49;;;;;;;0.40;0.40;;;;;;;6.39;99.77;98706.25;5093357;28;20052;-58
2023/11/24 09:50:17;;;;;;;0.40;0.40;;;;;;;6.10;96.31;98708.75;5092535;28;20113;-61
2023/11/24 09:52:46;;;;;;;0.30;0.30;;;;;;;6.01;99.05;98694.13;5090617;28;20067;-58
2023/11/24 09:55:13;;;;;;;0.40;0.40;;;;;;;6.15;96.32;98698.22;5092328;28;20050;-58
2023/11/24 09:57:41;;;;;;;0.30;0.30;;;;;;;6.24;96.75;98698.69;5094073;28;20108;-58
2023/11/24 10:00:09;;;;;;;0.40;0.40;;;;;;;6.07;95.72;98695.91;5096265;28;20071;-58
2023/11/24 10:02:38;;;;;;;0.35;0.35;;;;;;;6.09;94.83;98691.16;5099392;28;20627;-58
2023/11/24 10:05:06;;;;;;;0.32;0.32;;;;;;;6.14;93.45;98683.31;5092673;28;20055;-58
2023/11/24 10:07:35;;;;;;;0.40;0.40;;;;;;;6.09;94.09;98675.19;5090288;28;20047;-58
2023/11/24 10:10:05;;;;;;;0.40;0.40;;;;;;;6.14;89.51;98672.66;5092452;28;20071;-59
2023/11/24 10:12:33;;;;;;;0.40;0.40;;;;;;;6.14;89.43;98656.69;5097258;28;20449;-58
2023/11/24 10:15:00;;;;;;;0.40;0.40;;;;;;;6.19;88.45;98654.16;5091086;28;20040;-58
2023/11/24 10:17:32;;;;;;;0.30;0.30;;;;;;;6.14;92.00;98645.22;5092436;27;20055;-58
2023/11/24 10:20:01;;;;;;;0.40;0.40;;;;;;;6.22;92.19;98648.38;5098276;28;20126;-59
2023/11/24 10:22:28;;;;;;;0.40;0.40;;;;;;;6.12;92.47;98652.66;5094221;28;20116;-58
2023/11/24 10:24:57;;;;;;;0.40;0.40;;;;;;;6.25;88.42;98631.94;5093720;28;21134;-58
2023/11/24 10:27:26;;;;;;;0.40;0.40;;;;;;;6.22;89.89;98643.06;5093761;28;20660;-58
2023/11/24 10:29:53;;;;;;;0.30;0.30;;;;;;;6.14;95.71;98640.75;5097971;28;20225;-58
2023/11/24 10:32:21;;;;;;;0.40;0.40;;;;;;;5.88;100.00;98646.41;5093556;28;20040;-58
2023/11/24 10:34:48;;;;;;;0.30;0.30;;;;;;;5.67;100.00;98640.53;5092339;28;20051;-58
2023/11/24 10:37:17;;;;;;;0.30;0.30;;;;;;;5.35;100.00;98646.03;5092584;28;20164;-58
2023/11/24 10:39:45;;;;;;;0.40;0.40;;;;;;;5.12;100.00;98644.06;5091562;27;20556;-59
2023/11/24 10:42:15;;;;;;;0.30;0.30;;;;;;;4.89;100.00;98633.25;5095437;28;20143;-58
2023/11/24 10:44:44;;;;;;;0.45;0.45;;;;;;;4.73;100.00;98650.59;5091402;28;20035;-58
2023/11/24 10:47:13;;;;;;;0.50;0.50;;;;;;;4.63;100.00;98650.28;5105857;27;20400;-58
2023/11/24 10:49:43;;;;;;;0.43;0.43;;;;;;;4.54;100.00;98669.13;5094411;28;20040;-58
2023/11/24 10:52:17;;;;;;;0.40;0.40;;;;;;;4.35;100.00;98675.41;5089846;28;20191;-58
2023/11/24 10:54:46;;;;;;;0.43;0.43;;;;;;;3.97;100.00;98678.91;5090743;28;20071;-58
2023/11/24 10:57:13;;;;;;;0.50;0.50;;;;;;;3.76;100.00;98671.28;5101940;27;20048;-58
2023/11/24 10:59:41;;;;;;;0.40;0.40;;;;;;;3.63;100.00;98665.00;5094303;28;20497;-58
2023/11/24 11:02:10;;;;;;;0.40;0.40;;;;;;;3.66;100.00;98630.13;5094029;27;20051;-58
2023/11/24 11:04:37;;;;;;;0.50;0.50;;;;;;;3.61;100.00;98637.09;5093336;28;20044;-58
2023/11/24 11:07:07;;;;;;;0.40;0.40;;;;;;;3.68;100.00;98627.28;5095552;28;20116;-59
2023/11/24 11:09:47;;;;;;;0.50;0.50;;;;;;;3.88;100.00;98622.66;5092725;28;20059;-59
2023/11/24 11:12:39;;;;;;;0.55;0.55;;;;;;;4.16;100.00;98618.00;5092124;27;20040;-58
2023/11/24 11:15:09;;;;;;;0.40;0.40;;;;;;;4.33;100.00;98613.78;5085374;28;20792;-58
2023/11/24 11:17:38;;;;;;;0.45;0.45;;;;;;;4.62;100.00;98601.69;5094668;28;20078;-59
2023/11/24 11:20:12;;;;;;;0.40;0.40;;;;;;;4.72;100.00;98612.59;5087862;28;20051;-59
2023/11/24 11:22:40;;;;;;;0.40;0.40;;;;;;;4.74;100.00;98599.09;5085067;28;20043;-59
2023/11/24 11:25:38;;;;;;;0.43;0.43;;;;;;;4.76;100.00;98589.06;5092113;27;20129;-58
2023/11/24 11:28:39;;;;;;;0.52;0.52;;;;;;;4.82;100.00;98579.41;5049976;28;20052;-58
2023/11/24 11:31:41;;;;;;;0.50;0.50;;;;;;;4.98;100.00;98576.97;5028889;28;20147;-58
2023/11/24 11:34:20;;;;;;;0.40;0.40;;;;;;;4.68;100.00;98573.44;5029837;28;20034;-58
2023/11/24 11:37:06;;;;;;;0.52;0.52;;;;;;;4.67;100.00;98577.16;5079038;28;20093;-58
2023/11/24 11:39:37;;;;;;;0.40;0.40;;;;;;;4.48;100.00;98573.63;5096739;28;20050;-59